Time;durP1;ratioP1;P1;durP2;ratioP2;P2;SDS_P1;SDS_P2;PMS_P1;PMS_P2;Temp;Humidity;BMP_temperature;BMP_pressure;BME280_temperature;BME280_humidity;BME280_pressure;Samples;Min_cycle;Max_cycle;Signal;HPM_P1;HPM_P2
2023/07/30 00:02:00;0.00;0.00;0.62;0.00;0.00;0.62;3.37;2.80;;;30.20;29.60;;;;;;2256512;61;20397;-63
2023/07/30 00:04:45;0.00;0.00;0.62;0.00;0.00;0.62;3.50;2.67;;;30.20;29.60;;;;;;2256738;61;20373;-63
2023/07/30 00:07:30;0.00;0.00;0.62;0.00;0.00;0.62;2.90;2.60;;;30.20;29.60;;;;;;2256189;61;20400;-63
2023/07/30 00:10:15;0.00;0.00;0.62;0.00;0.00;0.62;2.60;2.33;;;30.20;29.60;;;;;;2255881;61;20366;-63
2023/07/30 00:13:00;0.00;0.00;0.62;0.00;0.00;0.62;3.13;2.83;;;30.20;29.60;;;;;;2256462;61;20366;-62
2023/07/30 00:15:46;0.00;0.00;0.62;0.00;0.00;0.62;2.93;2.30;;;30.20;29.60;;;;;;2253411;61;20778;-62
2023/07/30 00:18:32;0.00;0.00;0.62;0.00;0.00;0.62;2.97;2.47;;;30.20;29.60;;;;;;2252059;61;20451;-62
2023/07/30 00:21:17;0.00;0.00;0.62;0.00;0.00;0.62;3.83;2.57;;;30.20;29.60;;;;;;2256623;61;20374;-63
2023/07/30 00:24:02;0.00;0.00;0.62;0.00;0.00;0.62;3.00;2.70;;;30.20;29.60;;;;;;2256069;61;20875;-63
2023/07/30 00:26:47;0.00;0.00;0.62;0.00;0.00;0.62;2.53;2.13;;;30.10;29.50;;;;;;2250527;61;20416;-63
2023/07/30 00:29:32;0.00;0.00;0.62;0.00;0.00;0.62;2.90;2.50;;;30.10;29.50;;;;;;2255774;61;20476;-63
2023/07/30 00:32:17;0.00;0.00;0.62;0.00;0.00;0.62;2.83;2.60;;;30.20;29.60;;;;;;2255957;61;20365;-63
2023/07/30 00:35:04;0.00;0.00;0.62;0.00;0.00;0.62;2.90;2.60;;;30.10;29.50;;;;;;2256721;61;20902;-63
2023/07/30 00:37:49;0.00;0.00;0.62;0.00;0.00;0.62;2.40;2.10;;;30.10;29.50;;;;;;2257064;61;20428;-63
2023/07/30 00:40:39;0.00;0.00;0.62;0.00;0.00;0.62;2.90;2.30;;;30.10;29.50;;;;;;2259705;61;20412;-61
2023/07/30 00:43:24;0.00;0.00;0.62;0.00;0.00;0.62;2.83;2.53;;;30.10;29.50;;;;;;2257536;61;20470;-62
2023/07/30 00:46:10;0.00;0.00;0.62;0.00;0.00;0.62;3.10;2.67;;;30.10;29.50;;;;;;2260612;61;20404;-63
2023/07/30 00:48:55;0.00;0.00;0.62;0.00;0.00;0.62;2.33;2.13;;;30.10;29.50;;;;;;2256310;61;20857;-64
2023/07/30 00:51:42;0.00;0.00;0.62;0.00;0.00;0.62;2.50;2.30;;;30.10;29.50;;;;;;2256491;61;20500;-63
2023/07/30 00:54:27;0.00;0.00;0.62;0.00;0.00;0.62;3.50;2.80;;;30.10;29.60;;;;;;2253255;61;20670;-63
2023/07/30 00:57:13;0.00;0.00;0.62;0.00;0.00;0.62;2.93;2.60;;;30.10;29.50;;;;;;2257523;61;20404;-63
2023/07/30 00:59:57;0.00;0.00;0.62;0.00;0.00;0.62;4.00;2.43;;;30.10;29.50;;;;;;2256953;61;20369;-63
2023/07/30 01:02:43;0.00;0.00;0.62;0.00;0.00;0.62;2.27;2.00;;;30.10;29.50;;;;;;2258007;61;21021;-64
2023/07/30 01:05:28;0.00;0.00;0.62;0.00;0.00;0.62;3.07;2.30;;;30.10;29.50;;;;;;2257016;61;20385;-64
2023/07/30 01:08:15;0.00;0.00;0.62;0.00;0.00;0.62;2.57;2.30;;;30.10;29.50;;;;;;2252786;61;20763;-65
2023/07/30 01:11:01;0.00;0.00;0.62;0.00;0.00;0.62;2.53;2.00;;;30.10;29.50;;;;;;2252605;61;20374;-63
2023/07/30 01:13:46;0.00;0.00;0.62;0.00;0.00;0.62;2.53;2.23;;;30.10;29.50;;;;;;2256219;61;20784;-63
2023/07/30 01:16:31;0.00;0.00;0.62;0.00;0.00;0.62;2.60;2.30;;;30.10;29.50;;;;;;2255828;61;20986;-64
2023/07/30 01:19:16;0.00;0.00;0.62;0.00;0.00;0.62;2.93;2.30;;;30.10;29.50;;;;;;2255155;61;20397;-64
2023/07/30 01:22:02;0.00;0.00;0.62;0.00;0.00;0.62;2.80;2.17;;;30.10;29.50;;;;;;2253235;61;20776;-64
2023/07/30 01:24:47;0.00;0.00;0.62;0.00;0.00;0.62;2.47;2.07;;;30.00;29.50;;;;;;2252336;61;20405;-64
2023/07/30 01:27:41;0.00;0.00;0.62;0.00;0.00;0.62;2.30;1.90;;;30.10;29.50;;;;;;2255788;61;20906;-64
2023/07/30 01:30:29;0.00;0.00;0.62;0.00;0.00;0.62;1.90;1.67;;;30.00;29.50;;;;;;2255891;61;20490;-64
2023/07/30 01:33:16;0.00;0.00;0.62;0.00;0.00;0.62;2.67;2.30;;;30.10;29.50;;;;;;2255413;61;20471;-62
2023/07/30 01:36:02;0.00;0.00;0.62;0.00;0.00;0.62;2.50;1.67;;;30.00;29.50;;;;;;2256250;61;20437;-63
2023/07/30 01:38:50;0.00;0.00;0.62;0.00;0.00;0.62;2.30;1.83;;;30.00;29.50;;;;;;2254757;61;20893;-65
2023/07/30 01:41:35;0.00;0.00;0.62;0.00;0.00;0.62;2.80;2.50;;;30.00;29.50;;;;;;2255999;61;20366;-64
2023/07/30 01:44:19;0.00;0.00;0.62;0.00;0.00;0.62;3.23;2.17;;;30.00;29.50;;;;;;2256104;61;20953;-63
2023/07/30 01:47:04;0.00;0.00;0.62;0.00;0.00;0.62;2.53;2.33;;;30.00;29.50;;;;;;2255773;61;20358;-63
2023/07/30 01:49:49;0.00;0.00;0.62;0.00;0.00;0.62;2.50;2.27;;;30.00;29.50;;;;;;2252512;61;20910;-61
2023/07/30 01:52:34;0.00;0.00;0.62;0.00;0.00;0.62;2.70;2.00;;;30.00;29.50;;;;;;2256426;61;20429;-63
2023/07/30 01:55:20;0.00;0.00;0.62;0.00;0.00;0.62;2.87;2.27;;;30.00;29.50;;;;;;2255604;61;20369;-63
2023/07/30 01:58:05;0.00;0.00;0.62;0.00;0.00;0.62;3.50;2.63;;;30.00;29.50;;;;;;2256102;61;20390;-62
2023/07/30 02:00:50;0.00;0.00;0.62;0.00;0.00;0.62;2.17;1.97;;;30.00;29.50;;;;;;2252309;61;20409;-63
2023/07/30 02:03:34;0.00;0.00;0.62;0.00;0.00;0.62;2.80;2.47;;;30.00;29.50;;;;;;2255963;61;20394;-64
2023/07/30 02:06:19;0.00;0.00;0.62;0.00;0.00;0.62;3.40;2.50;;;30.00;29.50;;;;;;2502065;53;20393;-64
2023/07/30 02:09:03;0.00;0.00;0.62;0.00;0.00;0.62;2.83;2.03;;;30.00;30.00;;;;;;2255045;61;20430;-64
2023/07/30 02:11:49;0.00;0.00;0.62;0.00;0.00;0.62;2.50;2.10;;;30.00;30.00;;;;;;2256162;61;20362;-65
2023/07/30 02:14:34;0.00;0.00;0.62;0.00;0.00;0.62;2.97;2.67;;;30.00;29.50;;;;;;2252834;61;20369;-64
2023/07/30 02:17:21;0.00;0.00;0.62;0.00;0.00;0.62;3.10;2.53;;;30.00;29.50;;;;;;2252421;61;20773;-63
2023/07/30 02:20:08;0.00;0.00;0.62;0.00;0.00;0.62;2.70;2.30;;;30.00;29.50;;;;;;2252592;61;20373;-62
2023/07/30 02:22:52;0.00;0.00;0.62;0.00;0.00;0.62;2.67;2.00;;;30.00;29.50;;;;;;2255598;61;20393;-63
2023/07/30 02:25:38;0.00;0.00;0.62;0.00;0.00;0.62;3.50;2.20;;;30.00;29.50;;;;;;2256173;61;20365;-62
2023/07/30 02:28:24;0.00;0.00;0.62;0.00;0.00;0.62;2.23;1.83;;;30.00;29.50;;;;;;2252559;61;20456;-63
2023/07/30 02:31:09;0.00;0.00;0.62;0.00;0.00;0.62;3.13;2.23;;;30.00;29.50;;;;;;2255381;61;20451;-63
2023/07/30 02:33:54;0.00;0.00;0.62;0.00;0.00;0.62;2.87;2.57;;;29.90;29.40;;;;;;2256272;61;20361;-63
2023/07/30 02:36:38;0.00;0.00;0.62;0.00;0.00;0.62;2.67;1.97;;;30.00;29.50;;;;;;2255884;61;20381;-63
2023/07/30 02:39:23;0.00;0.00;0.62;0.00;0.00;0.62;2.57;2.33;;;29.90;29.40;;;;;;2255118;61;20677;-64
2023/07/30 02:42:07;0.00;0.00;0.62;0.00;0.00;0.62;2.63;2.40;;;29.90;29.40;;;;;;2256009;61;20362;-64
2023/07/30 02:44:53;0.00;0.00;0.62;0.00;0.00;0.62;2.33;2.10;;;29.90;29.40;;;;;;2252639;61;20381;-64
2023/07/30 02:47:38;0.00;0.00;0.62;0.00;0.00;0.62;2.70;2.50;;;29.90;29.40;;;;;;2255967;61;20855;-63
2023/07/30 02:50:22;0.00;0.00;0.62;0.00;0.00;0.62;2.40;1.90;;;29.90;29.40;;;;;;2255616;61;20365;-64
2023/07/30 02:53:07;0.00;0.00;0.62;0.00;0.00;0.62;2.30;2.10;;;29.90;29.40;;;;;;2255345;61;20769;-60
2023/07/30 02:55:52;0.00;0.00;0.62;0.00;0.00;0.62;2.50;1.70;;;29.90;29.40;;;;;;2256084;61;20369;-63
2023/07/30 02:58:37;0.00;0.00;0.62;0.00;0.00;0.62;2.73;1.83;;;29.90;29.40;;;;;;2252346;61;20385;-68
2023/07/30 03:01:23;0.00;0.00;0.62;0.00;0.00;0.62;2.20;1.83;;;29.90;29.40;;;;;;2252197;61;20425;-64
2023/07/30 03:04:08;0.00;0.00;0.62;0.00;0.00;0.62;2.50;2.13;;;29.90;29.40;;;;;;2253200;61;20429;-63
2023/07/30 03:06:53;0.00;0.00;0.62;0.00;0.00;0.62;3.27;2.30;;;29.90;29.40;;;;;;2260067;61;20758;-63
2023/07/30 03:09:37;0.00;0.00;0.62;0.00;0.00;0.62;2.10;1.83;;;29.90;29.40;;;;;;2258838;61;20999;-61
2023/07/30 03:12:22;0.00;0.00;0.62;0.00;0.00;0.62;2.60;1.90;;;29.90;29.40;;;;;;2256796;61;20414;-63
2023/07/30 03:15:08;0.00;0.00;0.62;0.00;0.00;0.62;2.57;2.10;;;29.90;29.30;;;;;;2256191;61;20423;-62
2023/07/30 03:17:54;0.00;0.00;0.62;0.00;0.00;0.62;2.20;1.50;;;29.90;29.30;;;;;;2256742;61;20443;-64
2023/07/30 03:20:39;0.00;0.00;0.62;0.00;0.00;0.62;1.93;1.40;;;29.90;29.30;;;;;;2259224;61;20407;-63
2023/07/30 03:23:23;0.00;0.00;0.62;0.00;0.00;0.62;2.23;1.73;;;29.90;29.30;;;;;;2259236;61;20971;-63
2023/07/30 03:26:09;0.00;0.00;0.62;0.00;0.00;0.62;2.83;1.93;;;29.90;29.30;;;;;;2259846;61;20372;-62
2023/07/30 03:28:53;0.00;0.00;0.62;0.00;0.00;0.62;1.90;1.40;;;29.90;29.30;;;;;;2259489;61;20431;-62
2023/07/30 03:31:38;0.00;0.00;0.62;0.00;0.00;0.62;1.93;1.57;;;29.90;29.90;;;;;;2260098;61;20400;-63
2023/07/30 03:34:25;0.00;0.00;0.62;0.00;0.00;0.62;2.50;2.10;;;29.90;29.30;;;;;;2260216;61;20404;-61
2023/07/30 03:37:10;0.00;0.00;0.62;0.00;0.00;0.62;1.90;1.50;;;29.90;29.30;;;;;;2260052;61;20369;-61
2023/07/30 03:39:55;0.00;0.00;0.62;0.00;0.00;0.62;2.57;1.70;;;29.90;29.30;;;;;;2260115;61;20360;-63
2023/07/30 03:42:39;0.00;0.00;0.62;0.00;0.00;0.62;2.17;1.60;;;29.80;29.30;;;;;;2260632;61;20397;-63
2023/07/30 03:45:24;0.00;0.00;0.62;0.00;0.00;0.62;1.90;1.37;;;29.80;29.20;;;;;;2259700;61;20644;-64
2023/07/30 03:48:08;0.00;0.00;0.62;0.00;0.00;0.62;1.97;1.60;;;29.80;29.20;;;;;;2260249;61;20924;-64
2023/07/30 03:50:55;0.00;0.00;0.62;0.00;0.00;0.62;3.90;1.63;;;29.80;29.20;;;;;;2260682;61;20419;-66
2023/07/30 03:53:40;0.00;0.00;0.62;0.00;0.00;0.62;2.90;1.60;;;29.80;29.20;;;;;;2260376;61;20422;-64
2023/07/30 03:56:25;0.00;0.00;0.62;0.00;0.00;0.62;2.17;1.50;;;29.80;29.20;;;;;;2260682;61;20673;-60
2023/07/30 03:59:10;0.00;0.00;0.62;0.00;0.00;0.62;1.60;1.30;;;29.80;29.20;;;;;;2259309;61;20396;-62
2023/07/30 04:01:55;0.00;0.00;0.62;0.00;0.00;0.62;1.93;1.43;;;29.80;29.20;;;;;;2260498;61;20441;-62
2023/07/30 04:04:40;0.00;0.00;0.62;0.00;0.00;0.62;2.03;1.40;;;29.80;29.20;;;;;;2258658;61;20477;-63
2023/07/30 04:07:26;0.00;0.00;0.62;0.00;0.00;0.62;2.43;1.50;;;29.80;29.20;;;;;;2255871;61;20769;-63
2023/07/30 04:10:11;0.00;0.00;0.62;0.00;0.00;0.62;2.90;1.43;;;29.80;29.20;;;;;;2255609;61;20365;-63
2023/07/30 04:12:55;0.00;0.00;0.62;0.00;0.00;0.62;1.90;1.33;;;29.80;29.20;;;;;;2253551;61;20405;-63
2023/07/30 04:15:40;0.00;0.00;0.62;0.00;0.00;0.62;2.47;1.60;;;29.80;29.20;;;;;;2256023;61;20365;-61
2023/07/30 04:18:24;0.00;0.00;0.62;0.00;0.00;0.62;2.73;1.57;;;29.80;29.20;;;;;;2256373;61;20389;-68
2023/07/30 04:21:10;0.00;0.00;0.62;0.00;0.00;0.62;2.63;1.30;;;29.80;29.20;;;;;;2253003;61;20361;-64
2023/07/30 04:23:56;0.00;0.00;0.62;0.00;0.00;0.62;2.07;1.60;;;29.80;29.20;;;;;;2252988;61;20909;-63
2023/07/30 04:26:41;0.00;0.00;0.62;0.00;0.00;0.62;2.10;1.50;;;29.80;29.20;;;;;;2256419;61;20365;-66
2023/07/30 04:29:26;0.00;0.00;0.62;0.00;0.00;0.62;2.20;1.60;;;29.70;29.20;;;;;;2255480;61;20424;-64
2023/07/30 04:32:11;0.00;0.00;0.62;0.00;0.00;0.62;2.10;1.30;;;29.80;29.20;;;;;;2253219;61;20886;-64
2023/07/30 04:34:56;0.00;0.00;0.62;0.00;0.00;0.62;1.80;1.50;;;29.80;29.20;;;;;;2256620;61;20412;-63
2023/07/30 04:37:40;0.00;0.00;0.62;0.00;0.00;0.62;2.67;1.60;;;29.70;29.10;;;;;;2255614;61;20452;-64
2023/07/30 04:40:27;0.00;0.00;0.62;0.00;0.00;0.62;2.67;1.60;;;29.70;29.10;;;;;;2252799;61;20725;-63
2023/07/30 04:43:12;0.00;0.00;0.62;0.00;0.00;0.62;2.20;1.50;;;29.70;29.20;;;;;;2256403;61;20486;-63
2023/07/30 04:45:57;0.00;0.00;0.62;0.00;0.00;0.62;2.00;1.27;;;29.70;29.70;;;;;;2256035;61;20389;-61
2023/07/30 04:48:42;0.00;0.00;0.62;0.00;0.00;0.62;3.90;1.77;;;29.70;29.10;;;;;;2252752;61;20794;-63
2023/07/30 04:51:28;0.00;0.00;0.62;0.00;0.00;0.62;2.23;1.57;;;29.70;29.20;;;;;;2252710;61;20758;-62
2023/07/30 04:54:12;0.00;0.00;0.62;0.00;0.00;0.62;3.40;1.70;;;29.70;29.10;;;;;;2256147;61;20365;-62
2023/07/30 04:56:58;0.00;0.00;0.62;0.00;0.00;0.62;1.90;1.50;;;29.70;29.10;;;;;;2253152;61;20777;-63
2023/07/30 04:59:43;0.00;0.00;0.62;0.00;0.00;0.62;2.90;1.50;;;29.70;29.10;;;;;;2255317;61;20406;-63
2023/07/30 05:02:29;0.00;0.00;0.62;0.00;0.00;0.62;2.50;1.63;;;29.70;29.10;;;;;;2253233;61;20421;-67
2023/07/30 05:05:14;0.00;0.00;0.62;0.00;0.00;0.62;2.60;1.70;;;29.70;29.10;;;;;;2258666;61;20465;-63
2023/07/30 05:07:59;0.00;0.00;0.62;0.00;0.00;0.62;2.23;1.67;;;29.70;29.10;;;;;;2260254;61;20411;-63
2023/07/30 05:10:44;0.00;0.00;0.62;0.00;0.00;0.62;2.90;1.77;;;29.70;29.10;;;;;;2260119;61;20360;-63
2023/07/30 05:13:30;0.00;0.00;0.62;0.00;0.00;0.62;2.70;1.80;;;29.70;29.10;;;;;;2259964;61;20361;-63
2023/07/30 05:16:14;0.00;0.00;0.62;0.00;0.00;0.62;3.80;2.20;;;29.70;29.10;;;;;;2260515;61;20772;-63
2023/07/30 05:18:59;0.00;0.00;0.62;0.00;0.00;0.62;3.13;2.00;;;29.70;29.10;;;;;;2259763;61;20416;-64
2023/07/30 05:21:43;0.00;0.00;0.62;0.00;0.00;0.62;2.33;1.73;;;29.70;29.10;;;;;;2259577;61;20380;-63
2023/07/30 05:24:28;0.00;0.00;0.62;0.00;0.00;0.62;1.87;1.47;;;29.70;29.10;;;;;;2260261;61;20388;-64
2023/07/30 05:27:13;0.00;0.00;0.62;0.00;0.00;0.62;2.60;1.70;;;29.70;29.10;;;;;;2260448;61;20586;-62
2023/07/30 05:29:59;0.00;0.00;0.62;0.00;0.00;0.62;2.00;1.60;;;29.70;29.10;;;;;;2259431;61;20373;-63
2023/07/30 05:32:44;0.00;0.00;0.62;0.00;0.00;0.62;2.00;1.33;;;29.70;29.10;;;;;;2256813;61;20397;-64
2023/07/30 05:35:28;0.00;0.00;0.62;0.00;0.00;0.62;2.10;1.80;;;29.70;29.70;;;;;;2259946;61;20440;-64
2023/07/30 05:38:13;0.00;0.00;0.62;0.00;0.00;0.62;3.10;2.10;;;29.70;29.60;;;;;;2260481;61;20388;-64
2023/07/30 05:40:58;0.00;0.00;0.62;0.00;0.00;0.62;3.30;2.00;;;29.70;29.10;;;;;;2260143;61;20411;-64
2023/07/30 05:43:42;0.00;0.00;0.62;0.00;0.00;0.62;3.13;1.87;;;29.70;29.10;;;;;;2259788;61;20520;-64
2023/07/30 05:46:28;0.00;0.00;0.62;0.00;0.00;0.62;2.87;1.73;;;29.70;29.10;;;;;;2260291;61;20404;-64
2023/07/30 05:49:14;0.00;0.00;0.62;0.00;0.00;0.62;2.03;1.73;;;29.70;29.10;;;;;;2259558;61;20808;-63
2023/07/30 05:51:59;0.00;0.00;0.62;0.00;0.00;0.62;2.00;1.57;;;29.70;29.10;;;;;;2259595;61;20415;-63
2023/07/30 05:54:43;0.00;0.00;0.62;0.00;0.00;0.62;2.73;2.10;;;29.70;29.10;;;;;;2260193;61;20380;-64
2023/07/30 05:57:28;0.00;0.00;0.62;0.00;0.00;0.62;2.83;1.93;;;29.70;29.10;;;;;;2259671;61;20664;-63
2023/07/30 06:00:14;0.00;0.00;0.62;0.00;0.00;0.62;3.57;2.70;;;29.70;29.10;;;;;;2259823;61;20369;-64
2023/07/30 06:03:00;0.00;0.00;0.62;0.00;0.00;0.62;2.50;1.90;;;29.70;29.10;;;;;;2260030;61;20389;-68
2023/07/30 06:05:45;0.00;0.00;0.62;0.00;0.00;0.62;2.43;1.83;;;29.70;29.70;;;;;;2256059;61;20382;-63
2023/07/30 06:08:30;0.00;0.00;0.62;0.00;0.00;0.62;2.40;1.90;;;29.70;29.20;;;;;;2255764;61;20432;-64
2023/07/30 06:11:14;0.00;0.00;0.62;0.00;0.00;0.62;1.97;1.60;;;29.70;29.10;;;;;;2256288;61;20497;-64
2023/07/30 06:13:59;0.00;0.00;0.62;0.00;0.00;0.62;2.87;2.03;;;29.70;29.10;;;;;;2255749;61;20357;-64
2023/07/30 06:16:44;0.00;0.00;0.62;0.00;0.00;0.62;3.03;2.10;;;29.70;29.10;;;;;;2256026;61;20409;-61
2023/07/30 06:19:30;0.00;0.00;0.62;0.00;0.00;0.62;2.30;1.87;;;29.70;29.20;;;;;;2255613;61;20509;-63
2023/07/30 06:22:15;0.00;0.00;0.62;0.00;0.00;0.62;2.57;2.10;;;29.70;29.10;;;;;;2256021;61;20378;-64
2023/07/30 06:25:00;0.00;0.00;0.62;0.00;0.00;0.62;2.83;2.00;;;29.70;29.20;;;;;;2256013;61;20358;-64
2023/07/30 06:27:44;0.00;0.00;0.62;0.00;0.00;0.62;2.73;2.20;;;29.70;29.10;;;;;;2255457;61;20382;-64
2023/07/30 06:30:29;0.00;0.00;0.62;0.00;0.00;0.62;3.97;1.90;;;29.70;29.10;;;;;;2255849;61;20373;-62
2023/07/30 06:33:14;0.00;0.00;0.62;0.00;0.00;0.62;2.20;1.93;;;29.70;29.20;;;;;;2256240;61;20373;-63
2023/07/30 06:35:59;0.00;0.00;0.62;0.00;0.00;0.62;2.30;2.00;;;29.70;29.10;;;;;;2255568;61;20761;-63
2023/07/30 06:38:44;0.00;0.00;0.62;0.00;0.00;0.62;3.00;1.77;;;29.60;29.10;;;;;;2255774;61;20440;-64
2023/07/30 06:41:29;0.00;0.00;0.62;0.00;0.00;0.62;4.10;2.00;;;29.70;29.10;;;;;;2256385;61;20405;-64
2023/07/30 06:44:14;0.00;0.00;0.62;0.00;0.00;0.62;2.67;2.20;;;29.70;29.20;;;;;;2255558;61;20809;-63
2023/07/30 06:46:58;0.00;0.00;0.62;0.00;0.00;0.62;2.70;2.20;;;29.70;29.20;;;;;;2256134;61;20373;-63
2023/07/30 06:49:43;0.00;0.00;0.62;0.00;0.00;0.62;2.03;1.83;;;29.70;29.20;;;;;;2251619;61;20441;-61
2023/07/30 06:52:29;0.00;0.00;0.62;0.00;0.00;0.62;2.60;2.20;;;29.60;29.10;;;;;;2256053;61;20394;-63
2023/07/30 06:55:13;0.00;0.00;0.62;0.00;0.00;0.62;2.50;1.80;;;29.70;29.20;;;;;;2256141;61;20370;-63
2023/07/30 06:57:58;0.00;0.00;0.62;0.00;0.00;0.62;2.30;1.67;;;29.60;29.10;;;;;;2255363;61;20465;-63
2023/07/30 07:00:43;0.00;0.00;0.62;0.00;0.00;0.62;4.50;2.10;;;29.60;29.10;;;;;;2256109;61;20428;-64
2023/07/30 07:03:28;0.00;0.00;0.62;0.00;0.00;0.62;2.40;1.83;;;29.70;29.10;;;;;;2256192;61;20440;-64
2023/07/30 07:06:12;0.00;0.00;0.62;0.00;0.00;0.62;3.30;2.40;;;29.60;29.10;;;;;;2259416;61;20372;-64
2023/07/30 07:08:58;0.00;0.00;0.62;0.00;0.00;0.62;2.93;1.87;;;29.60;29.10;;;;;;2259674;61;20504;-64
2023/07/30 07:11:43;0.00;0.00;0.62;0.00;0.00;0.62;2.63;2.27;;;29.60;29.10;;;;;;2259019;61;20505;-64
2023/07/30 07:14:27;0.00;0.00;0.62;0.00;0.00;0.62;3.37;2.60;;;29.60;29.10;;;;;;2260036;61;20396;-64
2023/07/30 07:17:12;0.00;0.00;0.62;0.00;0.00;0.62;2.37;2.13;;;29.60;29.10;;;;;;2256997;61;20368;-64
2023/07/30 07:19:58;0.00;0.00;0.62;0.00;0.00;0.62;2.20;1.93;;;29.60;29.10;;;;;;2259034;61;20360;-64
2023/07/30 07:22:43;0.00;0.00;0.62;0.00;0.00;0.62;3.00;2.07;;;29.60;29.20;;;;;;2259955;61;20435;-64
2023/07/30 07:25:29;0.00;0.00;0.62;0.00;0.00;0.62;3.47;1.90;;;29.60;29.20;;;;;;2259891;61;20395;-63
2023/07/30 07:28:14;0.00;0.00;0.62;0.00;0.00;0.62;2.77;2.00;;;29.60;29.10;;;;;;2255804;61;20388;-64
2023/07/30 07:30:58;0.00;0.00;0.62;0.00;0.00;0.62;2.40;2.20;;;29.60;29.10;;;;;;2259835;61;20893;-64
2023/07/30 07:33:45;0.00;0.00;0.62;0.00;0.00;0.62;3.17;2.50;;;29.60;29.10;;;;;;2259389;61;20368;-64
2023/07/30 07:36:30;0.00;0.00;0.62;0.00;0.00;0.62;2.50;2.00;;;29.60;29.10;;;;;;2260287;61;20404;-62
2023/07/30 07:39:15;0.00;0.00;0.62;0.00;0.00;0.62;2.80;2.23;;;29.60;29.10;;;;;;2259624;61;20511;-63
2023/07/30 07:42:01;0.00;0.00;0.62;0.00;0.00;0.62;2.83;2.20;;;29.60;29.60;;;;;;2259495;61;20403;-64
2023/07/30 07:44:46;0.00;0.00;0.62;0.00;0.00;0.62;2.23;1.60;;;29.60;29.10;;;;;;2259951;61;20385;-63
2023/07/30 07:47:30;0.00;0.00;0.62;0.00;0.00;0.62;2.30;1.80;;;29.60;29.10;;;;;;2260210;61;20368;-64
2023/07/30 07:50:15;0.00;0.00;0.62;0.00;0.00;0.62;2.60;1.90;;;29.60;29.10;;;;;;2258928;61;20395;-64
2023/07/30 07:53:00;0.00;0.00;0.62;0.00;0.00;0.62;3.57;2.00;;;29.60;29.10;;;;;;2260059;61;20385;-64
2023/07/30 07:55:45;0.00;0.00;0.62;0.00;0.00;0.62;2.40;2.00;;;29.60;29.10;;;;;;2259946;61;20396;-64
2023/07/30 07:58:32;0.00;0.00;0.62;0.00;0.00;0.62;3.17;2.17;;;29.60;29.10;;;;;;2259624;61;20385;-64
2023/07/30 08:01:17;0.00;0.00;0.62;0.00;0.00;0.62;3.20;2.23;;;29.60;29.20;;;;;;2259878;61;20361;-63
2023/07/30 08:04:02;0.00;0.00;0.62;0.00;0.00;0.62;2.73;2.30;;;29.60;29.10;;;;;;2258825;61;20519;-63
2023/07/30 08:06:47;0.00;0.00;0.62;0.00;0.00;0.62;4.10;2.30;;;29.60;29.10;;;;;;2255882;61;20501;-63
2023/07/30 08:09:31;0.00;0.00;0.62;0.00;0.00;0.62;2.70;2.40;;;29.60;29.10;;;;;;2255485;61;20465;-63
2023/07/30 08:12:16;0.00;0.00;0.62;0.00;0.00;0.62;2.50;2.00;;;29.60;29.10;;;;;;2255719;61;20428;-68
2023/07/30 08:15:03;0.00;0.00;0.62;0.00;0.00;0.62;3.53;1.93;;;29.60;29.10;;;;;;2256082;61;20393;-64
2023/07/30 08:17:47;0.00;0.00;0.62;0.00;0.00;0.62;2.80;2.17;;;29.60;29.10;;;;;;2257069;61;20509;-64
2023/07/30 08:20:32;0.00;0.00;0.62;0.00;0.00;0.62;4.10;2.30;;;29.60;29.10;;;;;;2256652;61;20412;-65
2023/07/30 08:23:16;0.00;0.00;0.62;0.00;0.00;0.62;2.80;1.90;;;29.60;29.10;;;;;;2256733;61;20485;-64
2023/07/30 08:26:01;0.00;0.00;0.62;0.00;0.00;0.62;2.73;2.00;;;29.60;29.10;;;;;;2256535;61;20370;-64
2023/07/30 08:28:46;0.00;0.00;0.62;0.00;0.00;0.62;2.80;2.20;;;29.60;29.10;;;;;;2253280;61;20398;-64
2023/07/30 08:31:32;0.00;0.00;0.62;0.00;0.00;0.62;3.03;2.03;;;29.60;29.10;;;;;;2257038;61;20370;-64
2023/07/30 08:34:16;0.00;0.00;0.62;0.00;0.00;0.62;2.80;2.23;;;29.60;29.10;;;;;;2256330;61;20470;-64
2023/07/30 08:37:01;0.00;0.00;0.62;0.00;0.00;0.62;2.57;2.13;;;29.60;29.10;;;;;;2256988;61;20409;-64
2023/07/30 08:39:46;0.00;0.00;0.62;0.00;0.00;0.62;3.10;2.30;;;29.60;29.10;;;;;;2256689;61;20370;-64
2023/07/30 08:42:32;0.00;0.00;0.62;0.00;0.00;0.62;2.03;1.83;;;29.60;29.10;;;;;;2253390;61;20402;-64
2023/07/30 08:45:17;0.00;0.00;0.62;0.00;0.00;0.62;2.43;2.03;;;29.60;29.10;;;;;;2256851;61;20361;-64
2023/07/30 08:48:04;0.00;0.00;0.62;0.00;0.00;0.62;2.50;2.00;;;29.60;29.10;;;;;;2256499;61;20436;-64
2023/07/30 08:50:50;0.00;0.00;0.62;0.00;0.00;0.62;2.70;2.00;;;29.60;29.10;;;;;;2256714;61;20394;-64
2023/07/30 08:53:35;0.00;0.00;0.62;0.00;0.00;0.62;3.70;2.20;;;29.60;29.10;;;;;;2256816;61;20378;-64
2023/07/30 08:56:19;0.00;0.00;0.62;0.00;0.00;0.62;2.53;2.33;;;29.60;29.00;;;;;;2256115;61;20425;-64
2023/07/30 08:59:06;0.00;0.00;0.62;0.00;0.00;0.62;2.60;2.30;;;29.60;29.00;;;;;;2255811;61;20382;-64
2023/07/30 09:01:53;0.00;0.00;0.62;0.00;0.00;0.62;4.17;2.70;;;29.60;29.00;;;;;;2256816;61;20925;-64
2023/07/30 09:04:43;0.00;0.00;0.62;0.00;0.00;0.62;2.27;1.80;;;29.60;29.00;;;;;;2257487;61;21081;-64
2023/07/30 09:07:28;0.00;0.00;0.62;0.00;0.00;0.62;2.70;2.03;;;29.60;29.00;;;;;;2260969;61;20369;-64
2023/07/30 09:10:13;0.00;0.00;0.62;0.00;0.00;0.62;2.33;1.80;;;29.60;29.00;;;;;;2259920;61;20368;-64
2023/07/30 09:12:58;0.00;0.00;0.62;0.00;0.00;0.62;3.20;2.80;;;29.60;29.10;;;;;;2260991;61;20508;-64
2023/07/30 09:15:48;0.00;0.00;0.62;0.00;0.00;0.62;3.00;1.83;;;29.60;29.00;;;;;;2260876;61;20963;-69
2023/07/30 09:18:39;0.00;0.00;0.62;0.00;0.00;0.62;4.50;2.43;;;29.70;29.20;;;;;;2259663;61;20455;-64
2023/07/30 09:21:34;0.00;0.00;0.62;0.00;0.00;0.62;2.87;2.40;;;29.70;29.10;;;;;;2260892;61;20361;-64
2023/07/30 09:24:22;0.00;0.00;0.62;0.00;0.00;0.62;3.97;2.23;;;29.70;29.10;;;;;;2260368;61;20446;-63
2023/07/30 09:27:06;0.00;0.00;0.62;0.00;0.00;0.62;3.07;2.57;;;29.70;29.10;;;;;;2260489;61;20646;-64
2023/07/30 09:29:53;0.00;0.00;0.62;0.00;0.00;0.62;2.70;2.00;;;29.70;29.70;;;;;;2260502;61;20712;-64
2023/07/30 09:32:37;0.00;0.00;0.62;0.00;0.00;0.62;2.93;2.13;;;29.70;29.20;;;;;;2259881;61;20408;-64
2023/07/30 09:35:27;0.00;0.00;0.62;0.00;0.00;0.62;2.83;2.60;;;29.70;29.10;;;;;;2260828;61;21055;-64
2023/07/30 09:38:13;0.00;0.00;0.62;0.00;0.00;0.62;2.70;2.50;;;29.70;29.10;;;;;;2261792;61;20399;-63
2023/07/30 09:41:01;0.00;0.00;0.62;0.00;0.00;0.62;2.70;2.30;;;29.70;29.10;;;;;;2261359;61;20434;-64
2023/07/30 09:43:45;0.00;0.00;0.62;0.00;0.00;0.62;4.27;2.70;;;29.70;29.10;;;;;;2261633;61;20428;-66
2023/07/30 09:46:30;0.00;0.00;0.62;0.00;0.00;0.62;3.33;2.67;;;29.70;29.10;;;;;;2261868;61;20433;-64
2023/07/30 09:49:15;0.00;0.00;0.62;0.00;0.00;0.62;2.77;2.13;;;29.70;29.10;;;;;;2260728;61;20392;-63
2023/07/30 09:52:02;0.00;0.00;0.62;0.00;0.00;0.62;3.20;2.30;;;29.70;29.10;;;;;;2261638;61;20902;-63
2023/07/30 09:54:49;0.00;0.00;0.62;0.00;0.00;0.62;3.70;2.87;;;29.70;29.10;;;;;;2261222;61;20377;-64
2023/07/30 09:57:35;0.00;0.00;0.62;0.00;0.00;0.62;3.07;2.80;;;29.70;29.20;;;;;;2261670;61;20365;-64
2023/07/30 10:00:19;0.00;0.00;0.62;0.00;0.00;0.62;3.00;2.70;;;29.70;29.10;;;;;;2261326;61;20948;-64
2023/07/30 10:03:06;0.00;0.00;0.62;0.00;0.00;0.62;3.30;3.00;;;29.70;29.10;;;;;;2260846;61;20411;-64
2023/07/30 10:05:54;0.00;0.00;0.62;0.00;0.00;0.62;3.20;2.90;;;29.70;29.10;;;;;;2258118;61;20444;-64
2023/07/30 10:08:41;0.00;0.00;0.62;0.00;0.00;0.62;4.17;2.67;;;29.70;29.10;;;;;;2260970;61;20392;-65
2023/07/30 10:11:29;0.00;0.00;0.62;0.00;0.00;0.62;3.00;2.70;;;29.70;29.10;;;;;;2261341;61;20373;-64
2023/07/30 10:14:15;0.00;0.00;0.62;0.00;0.00;0.62;3.63;2.87;;;29.70;29.10;;;;;;2261425;61;20393;-63
2023/07/30 10:17:01;0.00;0.00;0.62;0.00;0.00;0.62;4.00;2.70;;;29.70;29.10;;;;;;2263278;61;20464;-64
2023/07/30 10:19:51;0.00;0.00;0.62;0.00;0.00;0.62;5.20;4.10;;;29.70;29.10;;;;;;2262162;61;20385;-61
2023/07/30 10:22:39;0.00;0.00;0.62;0.00;0.00;0.62;6.07;5.47;;;29.70;28.90;;;;;;2261817;61;20370;-68
2023/07/30 10:25:30;0.00;0.00;0.62;0.00;0.00;0.62;5.47;4.97;;;29.70;28.70;;;;;;2261426;61;20373;-65
2023/07/30 10:28:33;0.00;0.00;0.62;0.00;0.00;0.62;9.20;5.50;;;29.70;28.50;;;;;;2259398;61;20405;-64
2023/07/30 10:31:18;0.00;0.00;0.62;0.00;0.00;0.62;6.13;5.40;;;29.70;28.50;;;;;;2339835;45;20936;-64
2023/07/30 10:34:08;0.00;0.00;0.62;0.00;0.00;0.62;8.03;6.47;;;29.60;28.40;;;;;;2257782;61;20397;-60
2023/07/30 10:36:55;0.00;0.00;0.62;0.00;0.00;0.62;7.23;6.50;;;29.60;28.30;;;;;;2259132;61;20904;-65
2023/07/30 10:39:40;0.00;0.00;0.62;0.00;0.00;0.62;7.63;6.83;;;29.60;28.20;;;;;;2261576;61;20469;-65
2023/07/30 10:42:34;0.00;0.00;0.62;0.00;0.00;0.62;6.33;5.73;;;29.50;28.10;;;;;;2262295;61;20809;-69
2023/07/30 10:45:25;0.00;0.00;0.62;0.00;0.00;0.62;8.07;7.17;;;29.50;28.10;;;;;;2258129;61;20435;-65
2023/07/30 10:48:10;0.00;0.00;0.62;0.00;0.00;0.62;8.57;6.70;;;29.40;28.00;;;;;;2254401;61;20784;-65
2023/07/30 10:50:55;0.00;0.00;0.62;0.00;0.00;0.62;7.50;6.80;;;29.40;28.10;;;;;;2258054;61;20775;-65
2023/07/30 10:53:42;0.00;0.00;0.62;0.00;0.00;0.62;8.97;7.77;;;29.30;28.10;;;;;;2258014;61;20408;-65